Time;durP1;ratioP1;P1;durP2;ratioP2;P2;SDS_P1;SDS_P2;PMS_P1;PMS_P2;Temp;Humidity;BMP_temperature;BMP_pressure;BME280_temperature;BME280_humidity;BME280_pressure;Samples;Min_cycle;Max_cycle;Signal;HPM_P1;HPM_P2
2022/03/23 00:01:37;;;;;;;;;;;4.60;99.90;;;;;;5015384;28;19905;-61
2022/03/23 00:04:03;;;;;;;;;;;4.60;99.90;;;;;;5015342;28;19909;-61
2022/03/23 00:06:28;;;;;;;;;;;4.40;99.90;;;;;;5034594;28;19905;-59
2022/03/23 00:08:54;;;;;;;;;;;4.40;99.90;;;;;;5018893;28;19912;-60
2022/03/23 00:11:20;;;;;;;;;;;4.50;99.90;;;;;;5018790;28;19909;-61
2022/03/23 00:13:46;;;;;;;;;;;4.60;99.90;;;;;;5018699;28;19905;-60
2022/03/23 00:16:12;;;;;;;;;;;4.60;99.90;;;;;;5036422;28;19905;-61
2022/03/23 00:18:37;;;;;;;;;;;4.60;99.90;;;;;;5036396;28;20379;-60
2022/03/23 00:21:03;;;;;;;;;;;4.70;99.90;;;;;;5036321;28;19909;-61
2022/03/23 00:23:28;;;;;;;;;;;4.70;99.90;;;;;;5036241;28;19905;-60
2022/03/23 00:25:54;;;;;;;;;;;4.50;99.90;;;;;;5019393;28;19964;-61
2022/03/23 00:28:19;;;;;;;;;;;4.40;99.90;;;;;;5018868;28;19952;-61
2022/03/23 00:30:45;;;;;;;;;;;4.40;99.90;;;;;;5018390;28;19959;-61
2022/03/23 00:33:11;;;;;;;;;;;4.40;99.90;;;;;;5036114;28;19905;-60
2022/03/23 00:35:36;;;;;;;;;;;4.50;99.90;;;;;;5018215;28;19905;-61
2022/03/23 00:38:02;;;;;;;;;;;4.60;99.90;;;;;;5036021;28;19909;-61
2022/03/23 00:40:28;;;;;;;;;;;4.60;99.90;;;;;;5019225;28;19905;-61
2022/03/23 00:42:54;;;;;;;;;;;4.60;99.90;;;;;;5018415;28;19936;-60
2022/03/23 00:45:20;;;;;;;;;;;4.60;99.90;;;;;;5018782;28;19952;-59
2022/03/23 00:47:48;;;;;;;;;;;4.60;99.90;;;;;;5018215;28;19905;-60
2022/03/23 00:50:14;;;;;;;;;;;4.50;99.90;;;;;;5018515;28;19913;-60
2022/03/23 00:52:40;;;;;;;;;;;4.40;99.90;;;;;;5017981;28;19909;-57
2022/03/23 00:55:09;;;;;;;;;;;4.30;99.90;;;;;;5035831;28;19920;-59
2022/03/23 00:57:38;;;;;;;;;;;4.30;99.90;;;;;;5018241;28;19949;-59
2022/03/23 01:00:06;;;;;;;;;;;4.20;99.90;;;;;;5036043;28;19960;-59
2022/03/23 01:02:32;;;;;;;;;;;4.00;99.90;;;;;;5017946;28;19909;-60
2022/03/23 01:04:58;;;;;;;;;;;4.10;99.90;;;;;;5035631;28;19955;-60
2022/03/23 01:07:23;;;;;;;;;;;4.00;99.90;;;;;;5017707;28;19941;-60
2022/03/23 01:09:49;;;;;;;;;;;4.00;99.90;;;;;;5035502;28;20366;-57
2022/03/23 01:12:14;;;;;;;;;;;3.90;99.90;;;;;;5017830;28;20015;-61
2022/03/23 01:14:41;;;;;;;;;;;3.90;99.90;;;;;;5017603;28;19905;-60
2022/03/23 01:17:07;;;;;;;;;;;3.80;99.90;;;;;;5017074;28;19905;-61
2022/03/23 01:19:32;;;;;;;;;;;3.80;99.90;;;;;;5035234;28;19967;-61
2022/03/23 01:21:58;;;;;;;;;;;3.70;99.90;;;;;;5017885;28;19912;-60
2022/03/23 01:24:23;;;;;;;;;;;3.70;99.90;;;;;;5017795;28;19913;-60
2022/03/23 01:26:49;;;;;;;;;;;3.70;99.90;;;;;;5017422;28;19905;-61
2022/03/23 01:29:14;;;;;;;;;;;3.70;99.90;;;;;;5017508;28;19912;-61
2022/03/23 01:31:40;;;;;;;;;;;3.60;99.90;;;;;;5017504;28;19909;-59
2022/03/23 01:34:05;;;;;;;;;;;3.60;99.90;;;;;;5017664;28;19905;-61
2022/03/23 01:36:31;;;;;;;;;;;3.60;99.90;;;;;;5017234;28;20355;-58
2022/03/23 01:38:57;;;;;;;;;;;3.50;99.90;;;;;;5018101;28;19905;-61
2022/03/23 01:41:23;;;;;;;;;;;3.50;99.90;;;;;;5017742;28;20279;-61
2022/03/23 01:43:49;;;;;;;;;;;3.40;99.90;;;;;;5017407;28;19951;-61
2022/03/23 01:46:18;;;;;;;;;;;3.40;99.90;;;;;;5016917;28;19905;-61
2022/03/23 01:48:45;;;;;;;;;;;3.40;99.90;;;;;;5017310;28;19916;-61
2022/03/23 01:51:11;;;;;;;;;;;3.40;99.90;;;;;;5016860;28;19908;-61
2022/03/23 01:53:36;;;;;;;;;;;3.30;99.90;;;;;;5034655;28;19992;-62
2022/03/23 01:56:02;;;;;;;;;;;3.40;99.90;;;;;;5016823;28;19952;-61
2022/03/23 01:58:28;;;;;;;;;;;3.40;99.90;;;;;;5016765;28;19909;-61
2022/03/23 02:00:53;;;;;;;;;;;3.50;99.90;;;;;;5034830;28;19908;-57
2022/03/23 02:03:19;;;;;;;;;;;3.50;99.90;;;;;;5034734;28;19963;-61
2022/03/23 02:05:44;;;;;;;;;;;3.50;99.90;;;;;;5034608;28;19911;-61
2022/03/23 02:08:10;;;;;;;;;;;3.50;99.90;;;;;;5016999;28;19971;-61
2022/03/23 02:10:36;;;;;;;;;;;3.50;99.90;;;;;;5034206;28;19909;-61
2022/03/23 02:13:01;;;;;;;;;;;3.40;99.90;;;;;;5016670;28;19905;-60
2022/03/23 02:15:29;;;;;;;;;;;3.50;99.90;;;;;;5016714;28;19905;-60
2022/03/23 02:17:56;;;;;;;;;;;3.50;99.90;;;;;;5016563;28;19912;-61
2022/03/23 02:20:22;;;;;;;;;;;3.40;99.90;;;;;;5016406;28;19950;-61
2022/03/23 02:22:48;;;;;;;;;;;3.40;99.90;;;;;;5016815;28;19990;-61
2022/03/23 02:25:17;;;;;;;;;;;3.40;99.90;;;;;;5034665;28;19999;-61
2022/03/23 02:27:43;;;;;;;;;;;3.20;99.90;;;;;;5016286;28;20359;-60
2022/03/23 02:30:09;;;;;;;;;;;3.20;99.90;;;;;;5033586;28;19912;-59
2022/03/23 02:32:35;;;;;;;;;;;3.10;99.90;;;;;;5016361;28;19909;-62
2022/03/23 02:35:01;;;;;;;;;;;3.10;99.90;;;;;;5016623;28;19905;-62
2022/03/23 02:37:26;;;;;;;;;;;3.10;99.90;;;;;;5016454;28;19971;-62
2022/03/23 02:39:52;;;;;;;;;;;3.10;99.90;;;;;;5016611;28;19944;-62
2022/03/23 02:42:17;;;;;;;;;;;3.00;99.90;;;;;;5033920;28;19963;-61
2022/03/23 02:44:43;;;;;;;;;;;3.00;99.90;;;;;;5016228;28;20015;-62
2022/03/23 02:47:09;;;;;;;;;;;3.10;99.90;;;;;;5016423;28;19906;-61
2022/03/23 02:49:34;;;;;;;;;;;3.00;99.90;;;;;;5033892;28;19905;-62
2022/03/23 02:52:00;;;;;;;;;;;2.90;99.90;;;;;;5033844;28;19909;-62
2022/03/23 03:01:52;;;;;;;;;;;2.90;99.90;;;;;;4992405;28;19988;-62
2022/03/23 03:03:25;;;;;;;;;;;2.90;99.90;;;;;;5029450;28;20016;-61
2022/03/23 03:05:50;;;;;;;;;;;2.90;99.90;;;;;;5033672;28;19949;-62
2022/03/23 03:11:00;;;;;;;;;;;2.80;99.90;;;;;;5034090;28;20275;-62
2022/03/23 03:13:29;;;;;;;;;;;2.80;99.90;;;;;;5033811;28;19909;-62
2022/03/23 03:15:59;;;;;;;;;;;2.90;99.90;;;;;;5033718;28;19909;-62
2022/03/23 03:18:25;;;;;;;;;;;2.70;99.90;;;;;;5033755;28;19932;-62
2022/03/23 03:20:50;;;;;;;;;;;2.70;99.90;;;;;;5015791;28;19947;-62
2022/03/23 03:23:16;;;;;;;;;;;2.70;99.90;;;;;;5033447;28;19905;-62
2022/03/23 03:25:41;;;;;;;;;;;2.60;99.90;;;;;;5033543;28;19905;-62
2022/03/23 03:28:07;;;;;;;;;;;2.60;99.90;;;;;;5016283;28;20260;-62
2022/03/23 03:30:32;;;;;;;;;;;2.60;99.90;;;;;;5015552;28;19905;-60
2022/03/23 03:32:58;;;;;;;;;;;2.60;99.90;;;;;;5015621;28;19905;-62
2022/03/23 03:35:23;;;;;;;;;;;2.60;99.90;;;;;;5015607;28;19967;-62
2022/03/23 03:37:49;;;;;;;;;;;2.60;99.90;;;;;;5033341;28;19970;-61
2022/03/23 03:40:14;;;;;;;;;;;2.60;99.90;;;;;;5034227;28;19905;-62
2022/03/23 03:42:40;;;;;;;;;;;2.60;99.90;;;;;;5037101;28;19912;-62
2022/03/23 03:45:06;;;;;;;;;;;2.60;99.90;;;;;;5019395;28;20468;-62
2022/03/23 03:47:31;;;;;;;;;;;2.70;99.90;;;;;;5036968;28;20426;-62
2022/03/23 03:49:57;;;;;;;;;;;2.70;99.90;;;;;;5037265;28;19986;-62
2022/03/23 03:52:22;;;;;;;;;;;2.60;99.90;;;;;;5036932;28;19913;-63
2022/03/23 03:54:48;;;;;;;;;;;2.60;99.90;;;;;;5036813;28;19905;-62
2022/03/23 03:57:14;;;;;;;;;;;2.60;99.90;;;;;;5019304;28;19916;-62
2022/03/23 03:59:39;;;;;;;;;;;2.60;99.90;;;;;;5019371;28;19920;-62
2022/03/23 04:02:05;;;;;;;;;;;2.70;99.90;;;;;;5037146;28;19928;-62
2022/03/23 04:04:31;;;;;;;;;;;2.60;99.90;;;;;;5036717;28;20375;-62
2022/03/23 04:06:56;;;;;;;;;;;2.50;99.90;;;;;;5018917;28;20359;-61
2022/03/23 04:09:22;;;;;;;;;;;2.50;99.90;;;;;;5019552;28;19971;-62
2022/03/23 04:11:48;;;;;;;;;;;2.50;99.90;;;;;;5036524;28;19967;-62
2022/03/23 04:14:13;;;;;;;;;;;2.60;99.90;;;;;;5019690;28;19916;-62
2022/03/23 04:16:39;;;;;;;;;;;2.60;99.90;;;;;;5019010;28;19905;-63
2022/03/23 04:19:05;;;;;;;;;;;2.50;99.90;;;;;;5018797;28;19905;-62
2022/03/23 04:21:30;;;;;;;;;;;2.40;99.90;;;;;;5018735;28;19905;-62
2022/03/23 04:23:56;;;;;;;;;;;2.30;99.90;;;;;;5036460;28;20279;-61
2022/03/23 04:26:21;;;;;;;;;;;2.20;99.90;;;;;;5036303;28;19905;-62
2022/03/23 04:28:47;;;;;;;;;;;2.10;99.90;;;;;;5018618;28;19909;-62
2022/03/23 04:31:13;;;;;;;;;;;2.10;99.90;;;;;;5018828;28;19944;-62
2022/03/23 04:33:38;;;;;;;;;;;2.00;99.90;;;;;;5036540;28;19955;-62
2022/03/23 04:36:04;;;;;;;;;;;2.00;99.90;;;;;;5036337;28;19909;-62
2022/03/23 04:38:29;;;;;;;;;;;2.00;99.90;;;;;;5036304;28;20265;-62
2022/03/23 04:40:55;;;;;;;;;;;2.00;99.90;;;;;;5036361;28;19905;-63
2022/03/23 04:43:20;;;;;;;;;;;2.10;99.90;;;;;;5036421;28;19988;-62
2022/03/23 04:45:46;;;;;;;;;;;2.10;99.90;;;;;;5035991;28;19944;-63
2022/03/23 04:48:11;;;;;;;;;;;2.20;99.90;;;;;;5036048;28;19905;-63
2022/03/23 04:50:37;;;;;;;;;;;2.20;99.90;;;;;;5018968;28;19905;-63
2022/03/23 04:53:03;;;;;;;;;;;2.30;99.90;;;;;;5035662;28;19955;-62
2022/03/23 04:55:29;;;;;;;;;;;2.30;99.90;;;;;;5017992;28;19947;-63
2022/03/23 04:57:55;;;;;;;;;;;2.10;99.90;;;;;;5036035;28;19909;-63
2022/03/23 05:00:21;;;;;;;;;;;2.10;99.90;;;;;;5018112;28;20370;-63
2022/03/23 05:02:48;;;;;;;;;;;2.00;99.90;;;;;;5035947;28;19905;-62
2022/03/23 05:05:14;;;;;;;;;;;2.00;99.90;;;;;;5018178;28;19913;-63
2022/03/23 05:07:40;;;;;;;;;;;1.90;99.90;;;;;;5017913;28;19955;-63
2022/03/23 05:10:07;;;;;;;;;;;2.00;99.90;;;;;;5017872;28;19981;-63
2022/03/23 05:12:32;;;;;;;;;;;2.00;99.90;;;;;;5035970;28;19915;-61
2022/03/23 05:14:58;;;;;;;;;;;2.00;99.90;;;;;;5017658;28;19991;-60
2022/03/23 05:17:23;;;;;;;;;;;2.00;99.90;;;;;;5017497;28;20011;-61
2022/03/23 05:19:49;;;;;;;;;;;1.90;99.90;;;;;;5018478;28;19909;-59
2022/03/23 05:22:15;;;;;;;;;;;1.90;99.90;;;;;;5035896;28;19912;-61
2022/03/23 05:24:40;;;;;;;;;;;1.90;99.90;;;;;;5017832;28;19928;-61
2022/03/23 05:27:07;;;;;;;;;;;2.00;99.90;;;;;;5035124;28;20271;-61
2022/03/23 05:29:32;;;;;;;;;;;2.10;99.90;;;;;;5017755;28;19935;-61
2022/03/23 05:31:58;;;;;;;;;;;2.10;99.90;;;;;;5017527;28;19963;-61
2022/03/23 05:34:24;;;;;;;;;;;2.10;99.90;;;;;;5017716;28;19916;-61
2022/03/23 05:36:50;;;;;;;;;;;2.20;99.90;;;;;;5017269;28;19913;-61
2022/03/23 05:39:15;;;;;;;;;;;2.30;99.90;;;;;;5017493;28;19905;-61
2022/03/23 05:41:41;;;;;;;;;;;2.30;99.90;;;;;;5034883;28;19905;-61
2022/03/23 05:44:07;;;;;;;;;;;2.30;99.90;;;;;;5017069;28;19905;-60
2022/03/23 05:46:32;;;;;;;;;;;2.40;99.90;;;;;;5017023;28;19905;-61
2022/03/23 05:48:58;;;;;;;;;;;2.50;99.90;;;;;;5017903;28;19905;-60
2022/03/23 05:51:23;;;;;;;;;;;2.50;99.90;;;;;;5034780;28;19932;-60
2022/03/23 05:53:49;;;;;;;;;;;2.60;99.90;;;;;;5034685;28;19905;-61
2022/03/23 05:56:15;;;;;;;;;;;2.70;99.90;;;;;;5034575;28;19909;-61
2022/03/23 05:58:40;;;;;;;;;;;2.90;99.90;;;;;;5016929;28;19967;-61
2022/03/23 06:01:06;;;;;;;;;;;3.10;99.90;;;;;;5034493;28;19924;-61
2022/03/23 06:03:31;;;;;;;;;;;3.30;99.90;;;;;;5035546;28;19905;-61
2022/03/23 06:05:57;;;;;;;;;;;3.30;99.90;;;;;;5016758;28;19912;-59
2022/03/23 06:08:22;;;;;;;;;;;3.30;99.90;;;;;;5016911;28;19905;-61
2022/03/23 06:10:48;;;;;;;;;;;3.60;99.90;;;;;;5016955;28;20363;-61
2022/03/23 06:13:14;;;;;;;;;;;3.70;99.90;;;;;;5016963;28;20351;-61
2022/03/23 06:15:40;;;;;;;;;;;4.20;99.90;;;;;;5016588;28;19912;-61
2022/03/23 06:18:05;;;;;;;;;;;4.70;99.90;;;;;;5017450;28;19905;-61
2022/03/23 06:20:31;;;;;;;;;;;5.40;99.90;;;;;;5016517;28;19913;-59
2022/03/23 06:22:56;;;;;;;;;;;6.10;99.90;;;;;;5017076;28;19909;-59
2022/03/23 06:25:24;;;;;;;;;;;7.20;99.90;;;;;;5016821;28;19967;-60
2022/03/23 06:27:50;;;;;;;;;;;7.90;99.90;;;;;;5016511;28;19909;-61
2022/03/23 06:30:15;;;;;;;;;;;8.80;99.90;;;;;;5034435;28;19905;-61
2022/03/23 06:32:41;;;;;;;;;;;9.70;99.90;;;;;;5016713;28;19909;-60
2022/03/23 06:35:08;;;;;;;;;;;10.30;99.90;;;;;;5017550;28;19974;-60
2022/03/23 06:37:34;;;;;;;;;;;10.70;99.90;;;;;;5033994;28;19905;-61
2022/03/23 06:39:59;;;;;;;;;;;11.30;99.90;;;;;;5034052;28;19912;-60
2022/03/23 06:42:25;;;;;;;;;;;12.00;99.90;;;;;;5034105;28;19912;-61
2022/03/23 06:44:51;;;;;;;;;;;12.60;99.90;;;;;;5016261;28;20421;-60
2022/03/23 06:47:16;;;;;;;;;;;12.70;99.90;;;;;;5016140;28;20318;-60
2022/03/23 06:49:42;;;;;;;;;;;13.20;99.50;;;;;;5016213;28;19905;-60
2022/03/23 06:52:08;;;;;;;;;;;13.70;97.60;;;;;;5033826;28;19948;-60
2022/03/23 06:54:33;;;;;;;;;;;14.30;95.70;;;;;;5016196;28;19906;-60
2022/03/23 06:56:59;;;;;;;;;;;15.00;94.30;;;;;;5034124;28;19909;-60
2022/03/23 06:59:24;;;;;;;;;;;15.20;92.10;;;;;;5033861;28;20406;-60
2022/03/23 07:01:50;;;;;;;;;;;15.60;92.30;;;;;;5016976;28;19932;-61
2022/03/23 07:04:16;;;;;;;;;;;15.60;91.00;;;;;;5016001;28;19912;-61
2022/03/23 07:06:41;;;;;;;;;;;16.30;89.20;;;;;;5016484;28;20004;-61
2022/03/23 07:11:51;;;;;;;;;;;16.60;85.50;;;;;;5034117;28;19916;-60
2022/03/23 07:14:17;;;;;;;;;;;17.20;82.50;;;;;;5016011;28;19909;-61
2022/03/23 07:16:43;;;;;;;;;;;17.50;79.50;;;;;;5019131;28;19968;-60
2022/03/23 07:19:08;;;;;;;;;;;17.50;81.20;;;;;;5019841;28;19905;-59
2022/03/23 07:21:34;;;;;;;;;;;18.30;78.70;;;;;;5037665;28;19976;-60
2022/03/23 07:24:00;;;;;;;;;;;18.50;81.00;;;;;;5020279;28;19912;-60
2022/03/23 07:26:25;;;;;;;;;;;18.90;74.00;;;;;;5037412;28;19956;-59
2022/03/23 07:28:51;;;;;;;;;;;18.50;76.40;;;;;;5020693;28;19911;-60
2022/03/23 07:31:16;;;;;;;;;;;19.60;72.40;;;;;;5037642;28;19909;-60
2022/03/23 07:33:42;;;;;;;;;;;19.40;75.10;;;;;;5019603;28;20371;-60
2022/03/23 07:36:08;;;;;;;;;;;20.00;70.10;;;;;;5037631;28;19905;-60
2022/03/23 07:38:33;;;;;;;;;;;20.50;72.60;;;;;;5037606;28;19905;-60
2022/03/23 07:40:59;;;;;;;;;;;21.20;68.80;;;;;;5037291;28;19912;-59
2022/03/23 07:43:25;;;;;;;;;;;21.20;65.50;;;;;;5019624;28;19909;-59
2022/03/23 07:45:50;;;;;;;;;;;21.00;65.90;;;;;;5019689;28;19905;-60
2022/03/23 07:48:16;;;;;;;;;;;21.70;62.10;;;;;;5019373;28;19905;-59
2022/03/23 07:50:42;;;;;;;;;;;20.80;63.70;;;;;;5036976;28;19912;-61
2022/03/23 07:53:07;;;;;;;;;;;21.20;65.20;;;;;;5037094;28;19962;-60
2022/03/23 07:55:33;;;;;;;;;;;22.40;68.70;;;;;;5019294;28;20316;-60
2022/03/23 07:57:58;;;;;;;;;;;22.90;62.20;;;;;;5019226;28;20451;-60
2022/03/23 08:00:24;;;;;;;;;;;22.70;59.70;;;;;;5019548;28;19917;-61
2022/03/23 08:02:50;;;;;;;;;;;22.70;59.70;;;;;;5037039;28;19932;-61
2022/03/23 08:05:16;;;;;;;;;;;22.90;59.20;;;;;;5019271;28;19911;-60
2022/03/23 08:07:41;;;;;;;;;;;23.80;59.10;;;;;;5018916;28;19991;-61
2022/03/23 08:10:07;;;;;;;;;;;24.40;58.50;;;;;;5036935;28;19911;-61
2022/03/23 08:12:33;;;;;;;;;;;25.10;57.10;;;;;;5036606;28;19913;-61
2022/03/23 08:14:58;;;;;;;;;;;26.20;56.40;;;;;;5036876;28;20367;-61
2022/03/23 08:17:24;;;;;;;;;;;26.00;54.10;;;;;;5019373;28;19935;-61
2022/03/23 08:20:32;;;;;;;;;;;25.70;52.50;;;;;;5018843;28;19909;-59
2022/03/23 08:22:35;;;;;;;;;;;26.00;53.60;;;;;;5036440;28;19968;-61
2022/03/23 08:25:00;;;;;;;;;;;26.90;51.20;;;;;;5036530;28;19959;-61
2022/03/23 08:27:26;;;;;;;;;;;26.50;51.20;;;;;;5035101;28;19905;-61
2022/03/23 08:29:52;;;;;;;;;;;27.00;50.10;;;;;;5036473;28;19912;-61
2022/03/23 08:32:17;;;;;;;;;;;28.20;50.90;;;;;;5018803;28;19909;-60
2022/03/23 08:34:43;;;;;;;;;;;28.80;48.00;;;;;;5036374;28;20048;-61
2022/03/23 08:37:08;;;;;;;;;;;27.90;48.10;;;;;;5018453;28;19948;-61
2022/03/23 08:39:34;;;;;;;;;;;28.60;46.70;;;;;;5018477;28;19912;-61
2022/03/23 08:41:59;;;;;;;;;;;28.60;48.10;;;;;;5018801;28;19905;-61
2022/03/23 08:44:25;;;;;;;;;;;28.70;46.10;;;;;;5018303;28;19905;-61
2022/03/23 08:46:50;;;;;;;;;;;29.10;48.30;;;;;;5035949;28;19905;-61
2022/03/23 08:49:16;;;;;;;;;;;29.80;46.00;;;;;;5018265;28;19959;-61
2022/03/23 08:51:41;;;;;;;;;;;29.70;44.90;;;;;;5035840;28;19909;-61
2022/03/23 08:54:07;;;;;;;;;;;29.50;44.30;;;;;;5018180;28;19906;-61
2022/03/23 08:56:32;;;;;;;;;;;29.40;46.00;;;;;;5017951;28;19951;-61
2022/03/23 08:58:58;;;;;;;;;;;29.90;44.50;;;;;;5017958;28;19951;-61
2022/03/23 09:01:24;;;;;;;;;;;30.00;45.00;;;;;;5018253;28;19905;-61
2022/03/23 09:03:49;;;;;;;;;;;29.40;44.20;;;;;;5018582;28;19912;-61
2022/03/23 09:06:15;;;;;;;;;;;30.20;45.80;;;;;;5018235;28;20320;-61
2022/03/23 09:08:41;;;;;;;;;;;30.00;43.70;;;;;;5017772;28;19905;-61
2022/03/23 09:11:07;;;;;;;;;;;29.80;43.70;;;;;;5035273;28;20283;-61
2022/03/23 09:13:33;;;;;;;;;;;30.40;44.00;;;;;;5017687;28;19905;-61
2022/03/23 09:15:59;;;;;;;;;;;30.80;44.30;;;;;;5017606;28;19905;-61
2022/03/23 09:18:28;;;;;;;;;;;31.80;44.00;;;;;;5018291;28;19916;-61
2022/03/23 09:20:54;;;;;;;;;;;32.20;42.50;;;;;;5017857;28;19912;-60
2022/03/23 09:23:20;;;;;;;;;;;32.00;40.80;;;;;;5017698;28;19905;-61
2022/03/23 09:25:46;;;;;;;;;;;32.00;41.10;;;;;;5017462;28;19931;-61
2022/03/23 09:28:11;;;;;;;;;;;31.90;40.70;;;;;;5017570;28;19905;-61
2022/03/23 09:30:37;;;;;;;;;;;33.00;41.10;;;;;;5017755;28;19905;-61
2022/03/23 09:33:03;;;;;;;;;;;32.70;39.60;;;;;;5017755;28;19963;-60
2022/03/23 09:35:28;;;;;;;;;;;32.30;41.20;;;;;;5017706;28;19905;-61
2022/03/23 09:37:56;;;;;;;;;;;32.50;38.80;;;;;;5034808;28;19905;-61
2022/03/23 09:40:24;;;;;;;;;;;32.00;40.60;;;;;;5017626;28;19905;-61
2022/03/23 09:42:50;;;;;;;;;;;31.50;39.50;;;;;;5034977;28;20429;-61
2022/03/23 09:45:30;;;;;;;;;;;30.30;39.90;;;;;;5018134;28;19937;-61
2022/03/23 09:47:56;;;;;;;;;;;29.10;40.00;;;;;;5035186;28;19905;-60
2022/03/23 09:50:24;;;;;;;;;;;29.70;40.90;;;;;;5017751;28;19912;-61
2022/03/23 09:52:51;;;;;;;;;;;30.60;40.00;;;;;;5017084;28;19913;-61
2022/03/23 09:55:16;;;;;;;;;;;30.90;39.90;;;;;;5017083;28;19909;-61
2022/03/23 09:57:42;;;;;;;;;;;31.50;39.90;;;;;;5016863;28;20008;-61
2022/03/23 10:00:10;;;;;;;;;;;32.00;40.20;;;;;;5034542;28;19913;-61
2022/03/23 10:02:39;;;;;;;;;;;31.20;38.90;;;;;;5016945;28;19912;-61
2022/03/23 10:05:23;;;;;;;;;;;30.60;40.70;;;;;;5017450;28;19928;-61
2022/03/23 10:08:07;;;;;;;;;;;29.90;41.20;;;;;;5016897;28;19931;-61
2022/03/23 10:10:52;;;;;;;;;;;30.70;39.20;;;;;;5016715;28;19912;-61
2022/03/23 10:13:36;;;;;;;;;;;30.80;39.90;;;;;;5016747;28;19959;-61
2022/03/23 10:16:20;;;;;;;;;;;29.80;39.80;;;;;;5016491;28;20007;-60
2022/03/23 10:18:52;;;;;;;;;;;29.10;41.10;;;;;;5016648;28;19932;-59
2022/03/23 10:21:19;;;;;;;;;;;28.40;41.40;;;;;;5034324;28;19905;-61
2022/03/23 10:23:51;;;;;;;;;;;28.60;41.30;;;;;;5016678;28;19912;-61
2022/03/23 10:26:17;;;;;;;;;;;28.40;39.80;;;;;;5016505;28;19905;-60
2022/03/23 10:28:42;;;;;;;;;;;27.70;39.30;;;;;;5016495;28;19959;-60
2022/03/23 10:31:18;;;;;;;;;;;26.70;40.00;;;;;;5016782;28;19944;-59
2022/03/23 10:33:44;;;;;;;;;;;26.10;41.20;;;;;;5017307;28;19912;-60
2022/03/23 10:36:11;;;;;;;;;;;26.10;42.80;;;;;;5016752;28;19913;-59
2022/03/23 10:38:38;;;;;;;;;;;25.90;43.50;;;;;;5017287;28;19952;-60
2022/03/23 10:41:23;;;;;;;;;;;25.80;43.30;;;;;;5016309;28;19931;-58
2022/03/23 10:43:49;;;;;;;;;;;25.40;44.10;;;;;;5016494;28;19912;-60
2022/03/23 10:46:14;;;;;;;;;;;24.60;44.00;;;;;;5016879;28;19909;-59
2022/03/23 10:49:01;;;;;;;;;;;23.70;46.50;;;;;;5016797;28;19905;-56
2022/03/23 10:51:28;;;;;;;;;;;23.50;47.30;;;;;;5033187;28;19909;-58
2022/03/23 10:53:54;;;;;;;;;;;23.50;45.70;;;;;;5033815;28;19905;-60
2022/03/23 10:56:30;;;;;;;;;;;23.30;46.60;;;;;;5016070;28;19951;-59
2022/03/23 10:59:14;;;;;;;;;;;23.30;46.10;;;;;;5016272;28;19909;-59
2022/03/23 11:01:58;;;;;;;;;;;23.20;45.90;;;;;;5016042;28;20008;-58
2022/03/23 11:04:24;;;;;;;;;;;23.00;46.80;;;;;;5034129;28;19905;-60
2022/03/23 11:06:50;;;;;;;;;;;22.80;46.40;;;;;;5015932;28;19905;-58
2022/03/23 11:17:48;;;;;;;;;;;22.60;46.90;;;;;;5033760;28;19912;-57
2022/03/23 11:20:15;;;;;;;;;;;22.50;45.90;;;;;;5015963;28;19905;-59
2022/03/23 11:22:41;;;;;;;;;;;22.40;44.40;;;;;;5015811;28;19913;-58
2022/03/23 11:25:06;;;;;;;;;;;21.60;45.10;;;;;;5015921;28;20367;-57
2022/03/23 11:27:32;;;;;;;;;;;21.00;44.40;;;;;;5015775;28;19905;-59
2022/03/23 11:29:58;;;;;;;;;;;20.90;47.50;;;;;;5015927;28;20003;-60
2022/03/23 11:32:27;;;;;;;;;;;21.00;44.30;;;;;;5016067;28;19959;-58
2022/03/23 11:34:55;;;;;;;;;;;21.00;43.60;;;;;;5015717;28;19905;-59
2022/03/23 11:37:21;;;;;;;;;;;21.20;43.50;;;;;;5016180;28;19905;-57
2022/03/23 11:39:47;;;;;;;;;;;21.10;43.40;;;;;;5015573;28;19906;-60
2022/03/23 11:42:13;;;;;;;;;;;21.20;44.20;;;;;;5033779;28;19905;-59
2022/03/23 11:44:40;;;;;;;;;;;21.20;43.20;;;;;;5015814;28;19939;-57
2022/03/23 11:47:08;;;;;;;;;;;21.20;42.00;;;;;;5033246;28;20431;-59
2022/03/23 11:49:54;;;;;;;;;;;21.20;40.90;;;;;;5015820;28;20282;-59
2022/03/23 11:52:26;;;;;;;;;;;21.20;39.50;;;;;;5015211;28;19955;-59
2022/03/23 11:57:48;;;;;;;;;;;21.20;41.10;;;;;;5033674;28;19955;-60
2022/03/23 12:00:18;;;;;;;;;;;21.10;41.80;;;;;;5015830;28;19920;-59
2022/03/23 12:02:43;;;;;;;;;;;20.90;41.90;;;;;;5018617;28;19905;-59
2022/03/23 12:05:22;;;;;;;;;;;20.80;42.20;;;;;;5019081;28;19987;-58
2022/03/23 12:07:47;;;;;;;;;;;20.70;42.00;;;;;;5019048;28;19905;-57
2022/03/23 12:10:20;;;;;;;;;;;20.70;42.90;;;;;;5019695;28;20039;-56
2022/03/23 12:12:45;;;;;;;;;;;20.80;40.50;;;;;;5018912;28;19916;-59
2022/03/23 12:15:23;;;;;;;;;;;20.60;40.10;;;;;;5018866;28;19912;-59
2022/03/23 12:17:58;;;;;;;;;;;20.30;37.60;;;;;;5018977;28;19909;-57
2022/03/23 12:20:28;;;;;;;;;;;20.10;40.00;;;;;;5036471;28;19937;-58
2022/03/23 12:22:59;;;;;;;;;;;20.20;40.40;;;;;;5036450;28;19905;-59
2022/03/23 12:25:43;;;;;;;;;;;20.10;41.10;;;;;;5018627;28;19905;-60
2022/03/23 12:28:49;;;;;;;;;;;20.10;40.60;;;;;;5036396;28;19912;-59
2022/03/23 12:31:15;;;;;;;;;;;20.10;41.10;;;;;;4959240;28;19957;-59
2022/03/23 12:33:59;;;;;;;;;;;20.20;38.70;;;;;;4960004;28;20122;-59
2022/03/23 12:36:55;;;;;;;;;;;20.10;40.80;;;;;;5012253;28;19906;-59
2022/03/23 12:39:20;;;;;;;;;;;20.20;40.40;;;;;;5036089;28;20318;-60
2022/03/23 12:41:46;;;;;;;;;;;20.30;40.50;;;;;;5018826;28;19999;-58
2022/03/23 12:44:12;;;;;;;;;;;20.40;40.30;;;;;;5018683;28;19905;-58
2022/03/23 12:46:43;;;;;;;;;;;20.20;39.10;;;;;;5036050;28;19905;-59
2022/03/23 13:00:11;;;;;;;;;;;19.40;40.70;;;;;;5036074;28;19919;-58
2022/03/23 13:02:36;;;;;;;;;;;19.50;40.80;;;;;;5018022;28;19904;-59
2022/03/23 13:05:04;;;;;;;;;;;19.60;41.10;;;;;;5035753;28;19905;-57
2022/03/23 13:07:37;;;;;;;;;;;19.60;42.00;;;;;;5018019;28;20406;-59
2022/03/23 13:10:11;;;;;;;;;;;19.70;42.60;;;;;;5036366;28;19924;-57
2022/03/23 13:12:38;;;;;;;;;;;19.60;41.30;;;;;;5017880;28;19909;-58
2022/03/23 13:15:10;;;;;;;;;;;19.70;43.60;;;;;;5035443;28;19932;-57
2022/03/23 13:17:38;;;;;;;;;;;19.60;43.00;;;;;;5017720;28;19959;-59
2022/03/23 13:20:04;;;;;;;;;;;19.60;43.90;;;;;;5017934;28;19916;-60
2022/03/23 13:22:38;;;;;;;;;;;19.70;44.70;;;;;;5017579;28;19905;-59
2022/03/23 13:25:05;;;;;;;;;;;19.70;43.10;;;;;;5017545;28;19916;-59
2022/03/23 13:27:31;;;;;;;;;;;19.70;43.10;;;;;;5035325;28;19987;-59
2022/03/23 13:29:59;;;;;;;;;;;19.60;43.60;;;;;;5018342;28;19959;-53
2022/03/23 13:32:32;;;;;;;;;;;19.70;44.10;;;;;;5017429;28;19971;-58
2022/03/23 13:34:59;;;;;;;;;;;19.70;43.20;;;;;;5017460;28;19991;-58
2022/03/23 13:37:25;;;;;;;;;;;19.70;42.70;;;;;;5035131;28;19970;-58
2022/03/23 13:39:50;;;;;;;;;;;19.60;43.40;;;;;;5017451;28;19905;-59
2022/03/23 13:45:07;;;;;;;;;;;19.50;44.20;;;;;;5035625;28;20329;-58
2022/03/23 13:47:33;;;;;;;;;;;19.50;43.50;;;;;;5017397;28;19905;-57
2022/03/23 13:49:59;;;;;;;;;;;19.50;44.00;;;;;;5017237;28;19958;-55
2022/03/23 13:52:26;;;;;;;;;;;19.50;45.60;;;;;;5034858;28;19991;-56
2022/03/23 13:54:53;;;;;;;;;;;19.60;43.80;;;;;;5017134;28;19948;-57
2022/03/23 13:57:18;;;;;;;;;;;19.50;42.70;;;;;;5017021;28;19931;-60
2022/03/23 13:59:46;;;;;;;;;;;19.50;43.40;;;;;;5034969;28;19996;-57
2022/03/23 14:02:16;;;;;;;;;;;19.50;44.20;;;;;;5017192;28;19905;-56
2022/03/23 14:04:42;;;;;;;;;;;19.50;43.90;;;;;;5035210;28;19905;-59
2022/03/23 14:07:08;;;;;;;;;;;19.50;45.00;;;;;;5034478;28;19928;-60
2022/03/23 14:09:37;;;;;;;;;;;19.50;44.10;;;;;;5017727;28;19905;-58
2022/03/23 14:12:06;;;;;;;;;;;19.40;44.50;;;;;;5034407;28;20367;-59
2022/03/23 14:14:35;;;;;;;;;;;19.40;43.90;;;;;;5017009;28;20000;-57
2022/03/23 14:17:04;;;;;;;;;;;19.40;44.40;;;;;;5034385;28;19905;-55
2022/03/23 14:19:34;;;;;;;;;;;19.30;44.00;;;;;;5034367;28;19967;-59
2022/03/23 14:22:01;;;;;;;;;;;19.20;44.60;;;;;;5016637;28;19955;-56
2022/03/23 14:24:30;;;;;;;;;;;19.20;45.80;;;;;;5033646;28;19905;-56
2022/03/23 14:27:11;;;;;;;;;;;19.20;46.30;;;;;;5016274;28;19915;-58
2022/03/23 14:29:37;;;;;;;;;;;19.30;46.40;;;;;;5016812;28;19909;-56
2022/03/23 14:32:03;;;;;;;;;;;19.20;45.50;;;;;;5034097;28;19909;-58
2022/03/23 14:34:31;;;;;;;;;;;19.20;45.60;;;;;;5016467;28;19955;-57
2022/03/23 14:37:03;;;;;;;;;;;19.20;46.10;;;;;;5016294;28;20008;-57
2022/03/23 14:39:37;;;;;;;;;;;19.20;45.80;;;;;;5016368;28;19927;-59
2022/03/23 14:42:06;;;;;;;;;;;19.20;45.50;;;;;;5016426;28;19905;-59
2022/03/23 14:44:35;;;;;;;;;;;19.20;46.10;;;;;;5016316;28;19905;-58
2022/03/23 14:47:10;;;;;;;;;;;19.20;45.60;;;;;;5016184;28;19961;-53
2022/03/23 14:49:37;;;;;;;;;;;19.20;46.70;;;;;;5016432;28;19909;-58
2022/03/23 14:52:05;;;;;;;;;;;19.20;45.00;;;;;;5033872;28;19940;-59
2022/03/23 14:54:31;;;;;;;;;;;19.20;45.30;;;;;;5016165;28;19951;-57
2022/03/23 14:56:56;;;;;;;;;;;19.20;46.00;;;;;;5016562;28;19909;-60
2022/03/23 14:59:22;;;;;;;;;;;19.20;45.20;;;;;;5033996;28;20008;-58
2022/03/23 15:01:56;;;;;;;;;;;19.10;46.00;;;;;;5034215;28;19921;-59